Time;durP1;ratioP1;P1;durP2;ratioP2;P2;SDS_P1;SDS_P2;PMS_P1;PMS_P2;Temp;Humidity;BMP_temperature;BMP_pressure;BME280_temperature;BME280_humidity;BME280_pressure;Samples;Min_cycle;Max_cycle;Signal;HPM_P1;HPM_P2
2022/06/06 00:01:37;;;;;;;8.40;1.58;;;;;;;;;;5095210;28;20061;-67
2022/06/06 00:04:03;;;;;;;6.32;1.50;;;;;;;;;;5095139;28;20119;-67
2022/06/06 00:06:29;;;;;;;4.93;1.98;;;;;;;;;;5095073;28;20032;-67
2022/06/06 00:08:55;;;;;;;4.63;1.60;;;;;;;;;;5095228;28;20377;-67
2022/06/06 00:11:21;;;;;;;15.18;2.20;;;;;;;;;;5095212;28;20032;-67
2022/06/06 00:13:47;;;;;;;8.20;1.83;;;;;;;;;;5095011;28;20036;-67
2022/06/06 00:16:13;;;;;;;2.85;1.30;;;;;;;;;;5095307;28;20430;-67
2022/06/06 00:18:39;;;;;;;8.63;2.25;;;;;;;;;;5095188;28;20043;-67
2022/06/06 00:21:08;;;;;;;8.55;1.60;;;;;;;;;;5094712;28;20028;-67
2022/06/06 00:23:34;;;;;;;8.20;1.80;;;;;;;;;;5094912;28;20073;-66
2022/06/06 00:26:01;;;;;;;4.30;1.60;;;;;;;;;;5094686;28;20115;-67
2022/06/06 00:28:27;;;;;;;7.05;1.88;;;;;;;;;;5093902;28;20442;-67
2022/06/06 00:30:57;;;;;;;5.93;1.90;;;;;;;;;;5094618;28;20030;-67
2022/06/06 00:36:08;;;;;;;9.95;1.60;;;;;;;;;;5094848;28;20082;-67
2022/06/06 00:38:34;;;;;;;4.95;1.88;;;;;;;;;;5094484;28;20496;-67
2022/06/06 00:41:00;;;;;;;6.18;1.77;;;;;;;;;;5094715;28;20036;-67
2022/06/06 00:43:27;;;;;;;6.78;1.95;;;;;;;;;;5094372;28;20051;-66
2022/06/06 00:45:56;;;;;;;9.00;1.90;;;;;;;;;;5094959;28;20393;-71
2022/06/06 00:48:28;;;;;;;3.75;1.85;;;;;;;;;;5094361;28;20043;-68
2022/06/06 00:50:54;;;;;;;8.55;2.33;;;;;;;;;;5094660;28;20043;-67
2022/06/06 00:53:35;;;;;;;4.30;1.88;;;;;;;;;;5094287;28;20036;-67
2022/06/06 00:56:07;;;;;;;9.52;2.05;;;;;;;;;;5094240;28;20039;-66
2022/06/06 00:58:35;;;;;;;7.03;2.08;;;;;;;;;;5091960;28;20067;-67
2022/06/06 01:01:01;;;;;;;8.93;2.33;;;;;;;;;;5091778;28;20673;-67
2022/06/06 01:03:28;;;;;;;9.73;2.55;;;;;;;;;;5091254;28;20802;-67
2022/06/06 01:05:56;;;;;;;7.82;1.90;;;;;;;;;;5093685;28;20028;-67
2022/06/06 01:08:22;;;;;;;7.05;2.10;;;;;;;;;;5093867;28;20039;-67
2022/06/06 01:10:49;;;;;;;6.63;2.38;;;;;;;;;;5094180;28;20035;-66
2022/06/06 01:13:16;;;;;;;8.63;1.80;;;;;;;;;;5093738;28;20044;-67
2022/06/06 01:15:59;;;;;;;4.70;1.98;;;;;;;;;;5093849;28;20518;-67
2022/06/06 01:18:37;;;;;;;3.55;1.80;;;;;;;;;;5093439;28;20085;-67
2022/06/06 01:21:03;;;;;;;5.53;2.15;;;;;;;;;;5093558;28;20480;-67
2022/06/06 01:23:56;;;;;;;11.63;2.20;;;;;;;;;;5093836;28;20043;-67
2022/06/06 01:26:28;;;;;;;9.70;2.15;;;;;;;;;;5093652;28;20518;-66
2022/06/06 01:28:54;;;;;;;;;;;;;;;;;;5093889;28;20032;-67
2022/06/06 01:31:52;;;;;;;5.82;1.67;;;;;;;;;;5093588;28;20256;-67
2022/06/06 01:34:23;;;;;;;8.60;2.13;;;;;;;;;;5037645;28;20047;-67
2022/06/06 01:36:50;;;;;;;6.47;2.15;;;;;;;;;;5092201;28;20028;-68
2022/06/06 01:39:16;;;;;;;6.32;1.92;;;;;;;;;;5092290;28;20059;-67
2022/06/06 01:41:58;;;;;;;7.40;2.20;;;;;;;;;;5092518;28;20495;-67
2022/06/06 01:44:30;;;;;;;6.28;2.00;;;;;;;;;;5092086;28;20044;-67
2022/06/06 01:46:56;;;;;;;;;;;;;;;;;;5092927;28;20121;-67
2022/06/06 01:49:23;;;;;;;6.47;1.85;;;;;;;;;;5092708;28;19911;-67
2022/06/06 01:52:00;;;;;;;10.30;1.90;;;;;;;;;;5092471;28;20043;-67
2022/06/06 01:54:26;;;;;;;7.20;1.80;;;;;;;;;;5092290;28;20162;-67
2022/06/06 01:56:53;;;;;;;6.03;1.77;;;;;;;;;;5092348;28;20028;-67
2022/06/06 01:59:19;;;;;;;5.40;2.00;;;;;;;;;;5092652;28;20032;-67
2022/06/06 02:01:45;;;;;;;3.20;1.70;;;;;;;;;;5092277;28;20119;-67
2022/06/06 02:04:12;;;;;;;9.30;1.75;;;;;;;;;;5092293;28;20052;-67
2022/06/06 02:06:41;;;;;;;4.95;1.90;;;;;;;;;;5092496;28;20031;-67
2022/06/06 02:09:08;;;;;;;4.07;1.67;;;;;;;;;;5092355;28;20377;-67
2022/06/06 02:11:34;;;;;;;7.93;1.92;;;;;;;;;;5092195;28;20129;-67
2022/06/06 02:14:00;;;;;;;6.95;1.95;;;;;;;;;;5092319;28;20492;-67
2022/06/06 02:16:27;;;;;;;8.35;1.80;;;;;;;;;;5092338;28;20029;-67
2022/06/06 02:18:52;;;;;;;8.77;2.08;;;;;;;;;;5092261;28;20036;-67
2022/06/06 02:21:19;;;;;;;10.77;1.98;;;;;;;;;;5092198;28;20023;-67
2022/06/06 02:23:45;;;;;;;9.90;2.08;;;;;;;;;;5091973;28;20039;-67
2022/06/06 02:26:12;;;;;;;8.00;1.73;;;;;;;;;;5092052;28;20114;-67
2022/06/06 02:28:39;;;;;;;7.75;1.98;;;;;;;;;;5092066;28;20107;-67
2022/06/06 02:31:05;;;;;;;7.88;1.92;;;;;;;;;;5092301;28;20044;-67
2022/06/06 02:33:32;;;;;;;6.70;2.00;;;;;;;;;;5091964;28;20032;-67
2022/06/06 02:36:00;;;;;;;5.05;1.73;;;;;;;;;;5092051;28;20032;-67
2022/06/06 02:38:27;;;;;;;7.15;2.60;;;;;;;;;;5091855;28;20554;-67
2022/06/06 02:40:53;;;;;;;12.60;2.30;;;;;;;;;;5092061;28;20031;-67
2022/06/06 02:43:21;;;;;;;8.98;2.42;;;;;;;;;;5092920;28;20492;-67
2022/06/06 02:45:48;;;;;;;12.27;2.42;;;;;;;;;;5092783;28;20036;-67
2022/06/06 02:48:15;;;;;;;7.22;2.00;;;;;;;;;;5092889;28;20391;-67
2022/06/06 02:50:42;;;;;;;8.73;2.30;;;;;;;;;;5094235;28;20485;-67
2022/06/06 02:53:08;;;;;;;4.60;2.03;;;;;;;;;;5096945;28;20040;-67
2022/06/06 02:55:35;;;;;;;9.93;2.05;;;;;;;;;;5096828;28;20043;-67
2022/06/06 02:58:01;;;;;;;5.63;2.10;;;;;;;;;;5096711;28;20032;-67
2022/06/06 03:00:30;;;;;;;7.57;3.05;;;;;;;;;;5096668;28;20047;-67
2022/06/06 03:02:57;;;;;;;9.57;2.70;;;;;;;;;;5096449;28;20024;-67
2022/06/06 03:05:25;;;;;;;8.40;2.08;;;;;;;;;;5096306;28;20075;-67
2022/06/06 03:07:51;;;;;;;13.18;2.47;;;;;;;;;;5096643;28;20036;-67
2022/06/06 03:10:44;;;;;;;11.95;2.72;;;;;;;;;;5096433;28;20055;-67
2022/06/06 03:13:34;;;;;;;9.40;2.72;;;;;;;;;;5096506;28;20036;-67
2022/06/06 03:21:41;;;;;;;9.35;2.80;;;;;;;;;;5096528;28;20442;-66
2022/06/06 03:24:14;;;;;;;6.85;3.47;;;;;;;;;;5096129;28;20063;-67
2022/06/06 03:26:58;;;;;;;12.70;2.75;;;;;;;;;;5096280;28;20369;-66
2022/06/06 03:29:43;;;;;;;6.43;2.63;;;;;;;;;;5096142;28;20492;-67
2022/06/06 03:32:24;;;;;;;5.53;2.70;;;;;;;;;;5077715;28;20400;-66
2022/06/06 03:34:50;;;;;;;6.97;2.70;;;;;;;;;;5096066;28;20063;-67
2022/06/06 03:37:21;;;;;;;8.10;2.53;;;;;;;;;;5095699;28;20048;-67
2022/06/06 03:39:57;;;;;;;10.32;2.42;;;;;;;;;;5096030;28;20032;-67
2022/06/06 03:42:36;;;;;;;11.98;2.92;;;;;;;;;;5095737;28;20044;-67
2022/06/06 03:45:02;;;;;;;5.82;2.67;;;;;;;;;;5095317;28;20105;-67
2022/06/06 03:47:31;;;;;;;6.90;2.60;;;;;;;;;;5095431;28;20032;-67
2022/06/06 03:50:08;;;;;;;5.65;2.75;;;;;;;;;;5095716;28;20437;-67
2022/06/06 03:52:40;;;;;;;9.00;2.70;;;;;;;;;;5095421;28;20411;-67
2022/06/06 03:55:06;;;;;;;;;;;;;;;;;;5095828;28;20058;-66
2022/06/06 03:57:34;;;;;;;9.27;2.30;;;;;;;;;;5095593;28;20360;-67
2022/06/06 04:00:01;;;;;;;12.13;2.80;;;;;;;;;;5095479;28;20031;-67
2022/06/06 04:02:31;;;;;;;7.03;2.10;;;;;;;;;;5095662;28;20062;-67
2022/06/06 04:05:00;;;;;;;9.40;2.50;;;;;;;;;;5095047;28;20076;-66
2022/06/06 04:07:26;;;;;;;8.63;2.15;;;;;;;;;;5095317;28;20068;-67
2022/06/06 04:09:52;;;;;;;8.85;2.50;;;;;;;;;;5095230;28;20036;-67
2022/06/06 04:12:21;;;;;;;7.68;3.00;;;;;;;;;;5095209;28;20602;-68
2022/06/06 04:14:47;;;;;;;8.32;2.60;;;;;;;;;;5094871;28;20085;-67
2022/06/06 04:17:22;;;;;;;13.32;2.90;;;;;;;;;;5094942;28;20111;-67
2022/06/06 04:19:48;;;;;;;5.80;2.45;;;;;;;;;;5094692;28;20062;-65
2022/06/06 04:22:26;;;;;;;9.88;2.10;;;;;;;;;;5094193;28;20028;-70
2022/06/06 04:25:07;;;;;;;9.27;2.70;;;;;;;;;;5094609;28;20073;-66
2022/06/06 04:27:51;;;;;;;9.50;2.78;;;;;;;;;;5094753;28;20123;-66
2022/06/06 04:30:17;;;;;;;8.77;2.53;;;;;;;;;;5094464;28;20496;-66
2022/06/06 04:33:06;;;;;;;13.70;2.35;;;;;;;;;;5094667;28;20039;-70
2022/06/06 04:35:39;;;;;;;9.20;2.70;;;;;;;;;;5094412;28;20043;-66
2022/06/06 04:38:12;;;;;;;13.07;2.75;;;;;;;;;;5094325;28;20468;-66
2022/06/06 04:40:47;;;;;;;6.63;2.75;;;;;;;;;;5094054;28;20528;-66
2022/06/06 04:43:31;;;;;;;8.55;3.00;;;;;;;;;;5092839;28;20569;-66
2022/06/06 04:46:01;;;;;;;8.43;3.22;;;;;;;;;;5091770;28;20095;-66
2022/06/06 04:48:28;;;;;;;9.73;2.88;;;;;;;;;;5093709;28;20575;-66
2022/06/06 04:50:55;;;;;;;9.32;2.67;;;;;;;;;;5093514;28;20081;-66
2022/06/06 04:53:22;;;;;;;10.52;2.85;;;;;;;;;;5094163;28;20032;-71
2022/06/06 04:55:50;;;;;;;6.50;3.00;;;;;;;;;;5092685;28;20026;-66
2022/06/06 04:58:16;;;;;;;13.35;2.90;;;;;;;;;;5092724;28;20485;-66
2022/06/06 05:00:43;;;;;;;8.13;2.50;;;;;;;;;;5091735;28;20028;-66
2022/06/06 05:03:09;;;;;;;13.07;3.25;;;;;;;;;;5093803;28;20111;-66
2022/06/06 05:05:55;;;;;;;9.38;2.92;;;;;;;;;;5093337;28;20032;-65
2022/06/06 05:08:40;;;;;;;8.88;2.85;;;;;;;;;;5053168;28;20366;-65
2022/06/06 05:11:12;;;;;;;15.90;2.83;;;;;;;;;;5093117;28;20036;-66
2022/06/06 05:13:56;;;;;;;10.13;3.25;;;;;;;;;;5093666;28;20119;-65
2022/06/06 05:16:39;;;;;;;7.60;2.85;;;;;;;;;;5093832;28;20032;-66
2022/06/06 05:19:24;;;;;;;7.20;2.80;;;;;;;;;;5093894;28;20079;-66
2022/06/06 05:22:00;;;;;;;5.75;2.78;;;;;;;;;;5094067;28;20511;-66
2022/06/06 05:24:29;;;;;;;8.20;2.80;;;;;;;;;;5093420;28;20040;-65
2022/06/06 05:27:05;;;;;;;15.45;3.03;;;;;;;;;;5093927;28;20032;-65
2022/06/06 05:29:30;;;;;;;11.55;2.95;;;;;;;;;;5093155;28;20024;-66
2022/06/06 05:32:00;;;;;;;9.55;2.92;;;;;;;;;;5093793;28;20074;-65
2022/06/06 05:34:31;;;;;;;13.07;3.00;;;;;;;;;;5093613;28;20040;-66
2022/06/06 05:37:03;;;;;;;11.50;2.75;;;;;;;;;;5093412;28;20033;-65
2022/06/06 05:39:48;;;;;;;7.35;2.38;;;;;;;;;;5093601;28;20036;-66
2022/06/06 05:42:40;;;;;;;12.98;2.47;;;;;;;;;;5093862;28;20032;-66
2022/06/06 05:45:06;;;;;;;;;;;;;;;;;;5090189;28;20043;-65
2022/06/06 05:47:38;;;;;;;4.35;1.80;;;;;;;;;;5093272;28;20344;-66
2022/06/06 05:50:04;;;;;;;12.68;1.98;;;;;;;;;;5093676;28;20032;-66
2022/06/06 05:52:42;;;;;;;8.52;2.05;;;;;;;;;;5093211;28;20040;-66
2022/06/06 05:55:25;;;;;;;12.95;1.80;;;;;;;;;;5093566;28;20039;-66
2022/06/06 05:57:51;;;;;;;7.05;1.70;;;;;;;;;;5093019;28;20680;-66
2022/06/06 06:00:34;;;;;;;4.68;1.17;;;;;;;;;;5093141;28;20131;-66
2022/06/06 06:03:19;;;;;;;4.90;1.33;;;;;;;;;;5093119;28;20032;-65
2022/06/06 06:06:00;;;;;;;6.10;1.00;;;;;;;;;;5092903;28;20036;-65
2022/06/06 06:08:33;;;;;;;5.32;0.98;;;;;;;;;;5092844;28;20078;-66
2022/06/06 06:11:21;;;;;;;3.75;1.00;;;;;;;;;;5093124;28;20456;-66
2022/06/06 06:13:57;;;;;;;3.30;0.90;;;;;;;;;;5092750;28;20043;-66
2022/06/06 06:16:24;;;;;;;5.20;1.10;;;;;;;;;;5092827;28;20044;-66
2022/06/06 06:19:12;;;;;;;5.07;0.77;;;;;;;;;;5092823;28;20035;-66
2022/06/06 06:21:41;;;;;;;8.68;1.30;;;;;;;;;;5092828;28;20111;-66
2022/06/06 06:24:12;;;;;;;7.30;0.93;;;;;;;;;;5092959;28;20048;-66
2022/06/06 06:26:39;;;;;;;2.27;0.90;;;;;;;;;;5096513;28;20461;-66
2022/06/06 06:29:06;;;;;;;5.35;0.57;;;;;;;;;;5096731;28;20294;-66
2022/06/06 06:31:40;;;;;;;2.42;0.80;;;;;;;;;;5097161;28;20101;-66
2022/06/06 06:34:23;;;;;;;4.18;1.30;;;;;;;;;;5097067;28;20507;-66
2022/06/06 06:36:58;;;;;;;4.32;1.13;;;;;;;;;;5096673;28;20074;-66
2022/06/06 06:39:43;;;;;;;7.07;1.30;;;;;;;;;;5096846;28;20039;-66
2022/06/06 06:42:21;;;;;;;3.08;0.90;;;;;;;;;;5096376;28;20036;-65
2022/06/06 06:44:53;;;;;;;2.97;1.08;;;;;;;;;;5095933;28;20040;-66
2022/06/06 06:47:23;;;;;;;5.28;0.85;;;;;;;;;;5096000;28;20138;-66
2022/06/06 06:49:56;;;;;;;8.00;0.88;;;;;;;;;;5096292;28;20374;-66
2022/06/06 06:52:40;;;;;;;3.72;1.10;;;;;;;;;;5095063;28;20043;-66
2022/06/06 06:55:09;;;;;;;1.35;0.60;;;;;;;;;;5095132;28;20412;-66
2022/06/06 06:57:41;;;;;;;2.35;0.70;;;;;;;;;;5096510;28;20499;-66
2022/06/06 07:00:07;;;;;;;;;;;;;;;;;;5096875;28;20036;-66
2022/06/06 07:08:36;;;;;;;4.00;0.90;;;;;;;;;;5096242;28;19957;-66
2022/06/06 07:11:02;;;;;;;0.70;0.60;;;;;;;;;;5095844;28;20040;-65
2022/06/06 07:13:46;;;;;;;1.95;0.70;;;;;;;;;;5095891;28;20112;-66
2022/06/06 07:16:22;;;;;;;2.95;1.00;;;;;;;;;;5096002;28;20040;-66
2022/06/06 07:18:52;;;;;;;5.97;0.90;;;;;;;;;;5096141;28;20032;-66
2022/06/06 07:21:19;;;;;;;5.57;0.88;;;;;;;;;;5095992;28;20032;-66
2022/06/06 07:23:48;;;;;;;3.10;0.70;;;;;;;;;;5095965;28;20036;-68
2022/06/06 07:26:14;;;;;;;4.00;0.77;;;;;;;;;;5096102;28;20040;-67
2022/06/06 07:28:40;;;;;;;4.85;0.80;;;;;;;;;;5095796;28;20028;-68
2022/06/06 07:31:25;;;;;;;0.88;0.60;;;;;;;;;;5095727;28;20040;-68
2022/06/06 07:33:51;;;;;;;1.58;0.60;;;;;;;;;;5095643;28;20032;-67
2022/06/06 07:36:36;;;;;;;2.83;0.73;;;;;;;;;;5095465;28;20039;-67
2022/06/06 07:39:02;;;;;;;3.40;0.73;;;;;;;;;;5095529;28;20055;-67
2022/06/06 07:41:44;;;;;;;2.03;0.60;;;;;;;;;;5095719;28;20036;-67
2022/06/06 07:44:40;;;;;;;6.57;0.73;;;;;;;;;;5095874;28;20044;-68
2022/06/06 07:47:18;;;;;;;2.75;0.63;;;;;;;;;;5078181;28;20056;-67
2022/06/06 07:49:54;;;;;;;1.30;0.63;;;;;;;;;;5095683;28;20028;-67
2022/06/06 07:52:22;;;;;;;4.25;0.70;;;;;;;;;;5095560;28;20035;-67
2022/06/06 07:54:49;;;;;;;2.47;0.50;;;;;;;;;;5095295;28;20020;-67
2022/06/06 07:57:21;;;;;;;2.25;0.85;;;;;;;;;;5095242;28;20482;-67
2022/06/06 07:59:53;;;;;;;2.83;0.77;;;;;;;;;;5095074;28;20032;-67
2022/06/06 08:02:23;;;;;;;4.63;0.70;;;;;;;;;;5095597;28;20035;-66
2022/06/06 08:04:59;;;;;;;4.15;0.82;;;;;;;;;;5095392;28;20092;-66
2022/06/06 08:07:42;;;;;;;3.47;0.77;;;;;;;;;;5095334;28;20039;-66
2022/06/06 08:10:27;;;;;;;2.13;0.50;;;;;;;;;;5095307;28;20412;-66
2022/06/06 08:12:55;;;;;;;3.17;0.68;;;;;;;;;;5092385;28;20028;-66
2022/06/06 08:15:21;;;;;;;5.97;0.70;;;;;;;;;;5094593;28;20040;-66
2022/06/06 08:18:07;;;;;;;5.47;0.80;;;;;;;;;;5094601;28;20032;-66
2022/06/06 08:20:40;;;;;;;2.13;0.57;;;;;;;;;;5078772;28;20028;-66
2022/06/06 08:23:07;;;;;;;4.78;0.63;;;;;;;;;;5091659;28;20040;-67
2022/06/06 08:25:36;;;;;;;2.63;0.57;;;;;;;;;;5094048;28;20171;-66
2022/06/06 08:28:02;;;;;;;4.53;0.80;;;;;;;;;;5094321;28;20032;-66
2022/06/06 08:30:30;;;;;;;2.53;0.65;;;;;;;;;;5094950;28;20108;-67
2022/06/06 08:32:56;;;;;;;1.23;0.70;;;;;;;;;;5094515;28;20504;-67
2022/06/06 08:35:23;;;;;;;8.80;0.77;;;;;;;;;;5094606;28;20493;-67
2022/06/06 08:38:13;;;;;;;2.15;0.77;;;;;;;;;;5094682;28;20055;-66
2022/06/06 08:40:51;;;;;;;4.55;0.98;;;;;;;;;;5094612;28;20142;-66
2022/06/06 08:43:40;;;;;;;4.53;0.60;;;;;;;;;;5094671;28;20036;-67
2022/06/06 08:46:33;;;;;;;5.88;0.70;;;;;;;;;;5083998;28;20115;-66
2022/06/06 08:49:02;;;;;;;1.85;0.65;;;;;;;;;;5093205;28;20032;-66
2022/06/06 08:51:47;;;;;;;0.82;0.50;;;;;;;;;;5094098;28;20040;-66
2022/06/06 08:54:19;;;;;;;4.30;0.70;;;;;;;;;;5093547;28;20131;-66
2022/06/06 08:56:51;;;;;;;2.40;0.50;;;;;;;;;;5094462;28;20070;-66
2022/06/06 08:59:17;;;;;;;3.70;0.70;;;;;;;;;;5094400;28;20435;-65
2022/06/06 09:02:02;;;;;;;2.08;0.50;;;;;;;;;;5094173;28;20038;-65
2022/06/06 09:04:40;;;;;;;1.38;0.60;;;;;;;;;;5094085;28;20040;-65
2022/06/06 09:07:22;;;;;;;1.17;0.45;;;;;;;;;;5092770;28;20086;-65
2022/06/06 09:10:07;;;;;;;2.33;0.75;;;;;;;;;;5093573;28;20082;-66
2022/06/06 09:12:36;;;;;;;1.60;0.60;;;;;;;;;;5093244;28;20040;-64
2022/06/06 09:15:14;;;;;;;4.47;0.63;;;;;;;;;;5093506;28;20528;-64
2022/06/06 09:17:43;;;;;;;2.88;0.77;;;;;;;;;;5093780;28;20040;-65
2022/06/06 09:20:21;;;;;;;3.47;0.50;;;;;;;;;;5093479;28;20523;-65
2022/06/06 09:22:47;;;;;;;5.75;0.68;;;;;;;;;;5093691;28;20512;-66
2022/06/06 09:25:32;;;;;;;5.50;0.70;;;;;;;;;;5093958;28;20090;-65
2022/06/06 09:28:17;;;;;;;1.10;0.60;;;;;;;;;;5093527;28;20468;-66
2022/06/06 09:30:49;;;;;;;5.38;0.80;;;;;;;;;;5093509;28;20040;-66
2022/06/06 09:33:34;;;;;;;1.50;0.60;;;;;;;;;;5092757;28;20020;-66
2022/06/06 09:36:07;;;;;;;2.95;0.70;;;;;;;;;;5092089;28;20063;-66
2022/06/06 09:38:33;;;;;;;2.72;0.60;;;;;;;;;;5093188;28;20044;-66
2022/06/06 09:41:17;;;;;;;2.75;0.60;;;;;;;;;;5093630;28;20036;-66
2022/06/06 09:43:43;;;;;;;2.22;0.60;;;;;;;;;;5093542;28;20111;-66
2022/06/06 09:46:09;;;;;;;1.75;0.50;;;;;;;;;;5093414;28;20098;-66
2022/06/06 09:48:54;;;;;;;2.42;0.73;;;;;;;;;;5093746;28;20032;-66
2022/06/06 09:51:35;;;;;;;4.68;0.70;;;;;;;;;;5093570;28;20032;-65
2022/06/06 10:00:17;;;;;;;2.03;0.60;;;;;;;;;;5093727;28;20062;-66
2022/06/06 10:03:01;;;;;;;1.05;0.70;;;;;;;;;;5093537;28;20036;-66
2022/06/06 10:05:48;;;;;;;1.90;0.52;;;;;;;;;;5093120;28;20075;-66
2022/06/06 10:08:38;;;;;;;3.00;0.60;;;;;;;;;;5092171;28;20050;-66
2022/06/06 10:11:19;;;;;;;3.05;0.73;;;;;;;;;;5092865;28;20111;-65
2022/06/06 10:13:51;;;;;;;4.60;0.65;;;;;;;;;;5093099;28;20035;-66
2022/06/06 10:16:41;;;;;;;1.15;0.50;;;;;;;;;;5093048;28;20039;-66
2022/06/06 10:19:13;;;;;;;4.68;0.65;;;;;;;;;;5092098;28;20050;-66
2022/06/06 10:21:57;;;;;;;3.13;0.68;;;;;;;;;;5092884;28;20031;-66
2022/06/06 10:24:33;;;;;;;3.42;0.57;;;;;;;;;;5092505;28;20047;-66
2022/06/06 10:27:19;;;;;;;2.80;0.70;;;;;;;;;;5091086;28;20060;-66
2022/06/06 10:30:11;;;;;;;1.88;0.40;;;;;;;;;;5092651;28;20031;-66
2022/06/06 10:32:37;;;;;;;1.55;0.65;;;;;;;;;;5092807;28;20373;-66
2022/06/06 10:35:14;;;;;;;2.50;0.77;;;;;;;;;;5092961;28;20043;-66
2022/06/06 10:37:59;;;;;;;4.05;0.73;;;;;;;;;;5092583;28;20174;-66
2022/06/06 10:41:03;;;;;;;1.95;0.70;;;;;;;;;;5091717;28;20174;-66
2022/06/06 10:43:29;;;;;;;2.60;0.80;;;;;;;;;;5010350;28;20030;-66
2022/06/06 10:45:59;;;;;;;1.95;0.50;;;;;;;;;;5010501;28;20399;-66
2022/06/06 10:48:44;;;;;;;6.22;0.60;;;;;;;;;;5051740;28;20195;-66
2022/06/06 10:51:42;;;;;;;2.88;0.75;;;;;;;;;;5092569;28;20024;-66
2022/06/06 10:54:26;;;;;;;3.55;0.82;;;;;;;;;;5065066;28;20059;-66
2022/06/06 10:57:04;;;;;;;2.35;0.60;;;;;;;;;;5092894;28;20039;-66
2022/06/06 10:59:39;;;;;;;1.65;0.55;;;;;;;;;;5092848;28;20443;-66
2022/06/06 11:02:11;;;;;;;7.57;1.10;;;;;;;;;;5092294;28;20071;-66
2022/06/06 11:04:37;;;;;;;1.55;0.50;;;;;;;;;;5092568;28;20447;-66
2022/06/06 11:07:30;;;;;;;4.72;1.00;;;;;;;;;;5093063;28;20033;-66
2022/06/06 11:10:18;;;;;;;3.33;0.60;;;;;;;;;;5092635;28;20151;-67
2022/06/06 11:13:16;;;;;;;3.58;0.70;;;;;;;;;;5095965;28;20096;-66
2022/06/06 11:15:50;;;;;;;4.20;1.10;;;;;;;;;;5051724;28;20028;-66
2022/06/06 11:18:16;;;;;;;3.60;0.63;;;;;;;;;;5096224;28;20434;-66
2022/06/06 11:20:54;;;;;;;1.77;0.60;;;;;;;;;;5096273;28;20085;-66
2022/06/06 11:23:21;;;;;;;4.55;0.60;;;;;;;;;;5096350;28;20068;-66
2022/06/06 11:26:06;;;;;;;1.00;0.45;;;;;;;;;;5096086;28;20459;-66
2022/06/06 11:28:52;;;;;;;1.83;0.60;;;;;;;;;;5095423;28;20028;-66
2022/06/06 11:31:21;;;;;;;1.92;0.60;;;;;;;;;;5095719;28;20111;-67
2022/06/06 11:34:00;;;;;;;3.58;0.80;;;;;;;;;;5095447;28;20111;-65
2022/06/06 11:36:35;;;;;;;2.55;0.90;;;;;;;;;;5095995;28;20119;-66
2022/06/06 11:39:10;;;;;;;4.00;0.73;;;;;;;;;;5095577;28;20056;-66
2022/06/06 11:41:39;;;;;;;4.15;0.70;;;;;;;;;;5095370;28;20102;-66
2022/06/06 11:44:24;;;;;;;1.05;0.70;;;;;;;;;;5095512;28;20182;-65
2022/06/06 11:46:56;;;;;;;0.80;0.38;;;;;;;;;;5095146;28;20486;-66
2022/06/06 11:49:22;;;;;;;1.17;0.57;;;;;;;;;;5093459;28;20105;-66
2022/06/06 11:51:51;;;;;;;5.10;0.63;;;;;;;;;;5094638;28;20472;-66
2022/06/06 11:54:33;;;;;;;4.55;0.70;;;;;;;;;;5094464;28;20040;-66
2022/06/06 11:57:17;;;;;;;2.75;0.65;;;;;;;;;;5094567;28;20040;-66
2022/06/06 11:59:43;;;;;;;0.95;0.50;;;;;;;;;;5093196;28;20032;-66
2022/06/06 12:02:25;;;;;;;2.58;1.17;;;;;;;;;;5092633;28;20408;-66
2022/06/06 12:05:10;;;;;;;4.45;0.60;;;;;;;;;;5094390;28;20082;-65
2022/06/06 12:07:36;;;;;;;4.53;0.70;;;;;;;;;;5090877;28;20111;-66
2022/06/06 12:10:20;;;;;;;2.22;0.60;;;;;;;;;;5093651;28;20032;-66
2022/06/06 12:12:58;;;;;;;2.20;0.60;;;;;;;;;;5095233;28;20411;-66
2022/06/06 12:15:36;;;;;;;3.95;0.85;;;;;;;;;;5095311;28;20381;-65
2022/06/06 12:18:20;;;;;;;2.25;0.60;;;;;;;;;;5094068;28;20046;-65
2022/06/06 12:20:52;;;;;;;5.55;0.60;;;;;;;;;;5093024;28;20064;-64
2022/06/06 12:23:28;;;;;;;4.30;0.50;;;;;;;;;;5091208;28;20059;-65
2022/06/06 12:25:54;;;;;;;3.28;0.60;;;;;;;;;;5094010;28;20101;-65
2022/06/06 12:28:35;;;;;;;4.13;0.80;;;;;;;;;;5093990;28;20028;-65
2022/06/06 12:31:04;;;;;;;1.50;0.60;;;;;;;;;;5093947;28;20090;-65
2022/06/06 12:33:30;;;;;;;3.72;0.77;;;;;;;;;;5094190;28;20036;-65
2022/06/06 12:35:56;;;;;;;3.67;0.70;;;;;;;;;;5094197;28;20082;-65
2022/06/06 12:38:48;;;;;;;3.72;0.70;;;;;;;;;;5093770;28;20161;-64
2022/06/06 12:41:14;;;;;;;4.45;0.68;;;;;;;;;;5094018;28;20039;-64
2022/06/06 12:43:40;;;;;;;1.85;0.70;;;;;;;;;;5093659;28;20032;-64
2022/06/06 12:46:22;;;;;;;3.85;0.50;;;;;;;;;;5091608;28;20044;-65
2022/06/06 12:48:48;;;;;;;1.80;0.75;;;;;;;;;;5093305;28;20506;-65
2022/06/06 12:51:33;;;;;;;1.92;0.63;;;;;;;;;;5093427;28;20036;-65
2022/06/06 12:54:07;;;;;;;1.10;0.57;;;;;;;;;;5094497;28;20035;-65
2022/06/06 12:56:39;;;;;;;3.22;0.75;;;;;;;;;;5094285;28;20166;-65
2022/06/06 12:59:24;;;;;;;3.20;0.60;;;;;;;;;;5094005;28;20029;-66
2022/06/06 13:01:54;;;;;;;1.75;0.70;;;;;;;;;;5094082;28;20043;-65
2022/06/06 13:04:39;;;;;;;2.00;1.00;;;;;;;;;;5094018;28;20430;-65
2022/06/06 13:07:13;;;;;;;1.52;0.65;;;;;;;;;;5094133;28;20032;-65
2022/06/06 13:09:42;;;;;;;2.22;0.70;;;;;;;;;;5094429;28;20032;-65
2022/06/06 13:12:27;;;;;;;0.68;0.57;;;;;;;;;;5094058;28;20036;-65
2022/06/06 13:15:10;;;;;;;3.63;0.60;;;;;;;;;;5093981;28;20048;-66
2022/06/06 13:17:36;;;;;;;8.27;0.80;;;;;;;;;;5093858;28;20504;-65
2022/06/06 13:20:03;;;;;;;1.60;0.70;;;;;;;;;;5094043;28;20190;-65
2022/06/06 13:22:43;;;;;;;4.45;0.70;;;;;;;;;;5093235;28;20158;-64
2022/06/06 13:25:12;;;;;;;3.88;0.68;;;;;;;;;;5093841;28;20039;-65
2022/06/06 13:27:56;;;;;;;2.05;0.60;;;;;;;;;;5093843;28;20063;-64
2022/06/06 13:30:24;;;;;;;3.58;0.70;;;;;;;;;;5093512;28;20060;-65
2022/06/06 13:33:00;;;;;;;1.40;0.70;;;;;;;;;;5093645;28;20040;-65
2022/06/06 13:35:43;;;;;;;1.15;0.60;;;;;;;;;;5093220;28;20036;-65
2022/06/06 13:38:10;;;;;;;12.07;0.85;;;;;;;;;;5093433;28;20052;-65
2022/06/06 13:40:44;;;;;;;4.53;0.60;;;;;;;;;;5093471;28;20024;-65
2022/06/06 13:43:10;;;;;;;1.58;0.60;;;;;;;;;;5093677;28;20035;-65
2022/06/06 13:45:55;;;;;;;4.22;0.50;;;;;;;;;;5092185;28;20044;-66
2022/06/06 13:48:21;;;;;;;1.90;0.70;;;;;;;;;;5092963;28;20028;-65
2022/06/06 13:50:47;;;;;;;4.65;0.82;;;;;;;;;;5093029;28;20042;-66
2022/06/06 13:53:19;;;;;;;4.70;0.85;;;;;;;;;;5093041;28;20028;-65
2022/06/06 13:55:45;;;;;;;2.22;0.70;;;;;;;;;;5091684;28;20062;-64
2022/06/06 13:58:34;;;;;;;1.90;0.70;;;;;;;;;;5092151;28;20028;-65
2022/06/06 14:01:18;;;;;;;1.25;0.70;;;;;;;;;;5092791;28;20043;-65
2022/06/06 14:03:44;;;;;;;1.17;0.75;;;;;;;;;;5092128;28;20067;-65
2022/06/06 14:06:22;;;;;;;14.48;1.10;;;;;;;;;;5092261;28;20480;-66
2022/06/06 14:08:50;;;;;;;2.40;0.82;;;;;;;;;;5092564;28;20425;-65
2022/06/06 14:11:23;;;;;;;6.22;0.88;;;;;;;;;;5092864;28;20036;-66
2022/06/06 14:13:52;;;;;;;2.47;0.90;;;;;;;;;;5091640;28;20426;-65
2022/06/06 14:16:22;;;;;;;1.27;0.70;;;;;;;;;;5090570;28;20036;-66
2022/06/06 14:18:52;;;;;;;3.63;0.80;;;;;;;;;;5091177;28;20039;-65
2022/06/06 14:21:35;;;;;;;3.17;0.77;;;;;;;;;;5092183;28;20079;-64
2022/06/06 14:24:27;;;;;;;2.00;0.70;;;;;;;;;;5071771;28;20503;-66
2022/06/06 14:26:53;;;;;;;3.13;0.85;;;;;;;;;;5069056;28;20118;-65
2022/06/06 14:29:31;;;;;;;2.38;0.60;;;;;;;;;;5072628;28;20091;-66
2022/06/06 14:32:02;;;;;;;2.13;0.70;;;;;;;;;;5070208;28;20068;-67
2022/06/06 14:34:41;;;;;;;1.80;0.55;;;;;;;;;;5071308;28;20024;-66
2022/06/06 14:37:09;;;;;;;2.00;0.70;;;;;;;;;;5070519;28;20127;-66
2022/06/06 14:39:35;;;;;;;2.90;0.80;;;;;;;;;;5089694;28;20105;-66
2022/06/06 14:42:03;;;;;;;2.17;0.93;;;;;;;;;;5091751;28;20043;-65
2022/06/06 14:44:31;;;;;;;1.63;0.60;;;;;;;;;;5092529;28;20503;-65
2022/06/06 14:47:10;;;;;;;4.72;0.82;;;;;;;;;;5093168;28;20569;-65
2022/06/06 14:49:38;;;;;;;2.28;0.80;;;;;;;;;;5093295;28;20388;-66
2022/06/06 14:52:09;;;;;;;2.15;0.73;;;;;;;;;;5092652;28;20166;-65
2022/06/06 14:54:36;;;;;;;3.50;1.55;;;;;;;;;;5096161;28;20032;-66
2022/06/06 14:57:04;;;;;;;3.45;0.80;;;;;;;;;;5096078;28;20028;-65
2022/06/06 14:59:35;;;;;;;5.70;0.82;;;;;;;;;;5095303;28;20024;-65
2022/06/06 15:02:13;;;;;;;3.25;0.80;;;;;;;;;;5095886;28;20036;-65
2022/06/06 15:04:40;;;;;;;1.23;0.70;;;;;;;;;;5095683;28;20433;-65
2022/06/06 15:07:07;;;;;;;0.85;0.60;;;;;;;;;;5095553;28;20040;-65
2022/06/06 15:09:33;;;;;;;1.75;0.70;;;;;;;;;;5095737;28;20071;-65
2022/06/06 15:12:00;;;;;;;2.63;0.60;;;;;;;;;;5096266;28;20032;-66
2022/06/06 15:14:28;;;;;;;2.60;0.80;;;;;;;;;;5096679;28;20123;-66
2022/06/06 15:16:55;;;;;;;2.15;0.70;;;;;;;;;;5096721;28;20077;-65
2022/06/06 15:19:34;;;;;;;1.65;0.80;;;;;;;;;;5096462;28;20032;-66
2022/06/06 15:22:01;;;;;;;2.90;0.80;;;;;;;;;;5095525;28;20028;-66
2022/06/06 15:24:35;;;;;;;1.85;0.70;;;;;;;;;;5095801;28;20083;-66
2022/06/06 15:27:14;;;;;;;3.25;0.80;;;;;;;;;;5095703;28;21038;-66
2022/06/06 15:29:56;;;;;;;4.05;0.70;;;;;;;;;;5095628;28;20036;-65
2022/06/06 15:32:32;;;;;;;1.83;0.80;;;;;;;;;;5095937;28;20106;-65
2022/06/06 15:35:17;;;;;;;2.45;0.80;;;;;;;;;;5096134;28;20028;-66
2022/06/06 15:37:43;;;;;;;6.18;1.20;;;;;;;;;;5095845;28;20040;-65
2022/06/06 15:40:18;;;;;;;4.05;0.70;;;;;;;;;;5096223;28;20036;-65
2022/06/06 15:42:51;;;;;;;1.73;0.80;;;;;;;;;;5095992;28;20392;-65